createdAt,value
2022-08-31T00:00:12.851Z,96528.00
2022-08-31T00:04:16.073Z,96526.00
2022-08-31T00:08:53.401Z,96518.00
2022-08-31T00:12:58.051Z,96522.00
2022-08-31T00:17:32.121Z,96516.00
2022-08-31T00:21:35.316Z,96508.00
2022-08-31T00:25:41.229Z,96507.00
2022-08-31T00:29:45.930Z,96507.00
2022-08-31T00:33:52.694Z,96513.00
2022-08-31T00:37:56.144Z,96508.00
2022-08-31T00:41:59.649Z,96508.00
2022-08-31T00:46:04.329Z,96511.00
2022-08-31T00:55:30.394Z,96512.00
2022-08-31T00:59:58.713Z,96509.00
2022-08-31T01:04:03.637Z,96513.00
2022-08-31T01:08:08.155Z,96513.00
2022-08-31T01:12:15.207Z,96507.00
2022-08-31T01:16:23.752Z,96504.00
2022-08-31T01:21:01.418Z,96507.00
2022-08-31T01:25:07.037Z,96504.00
2022-08-31T01:29:40.748Z,96503.00
2022-08-31T01:33:44.227Z,96504.00
2022-08-31T01:37:47.341Z,96501.00
2022-08-31T01:41:52.396Z,96502.00
2022-08-31T01:45:55.569Z,96506.00
2022-08-31T01:49:58.751Z,96503.00
2022-08-31T01:54:02.573Z,96496.00
2022-08-31T01:58:07.955Z,96493.00
2022-08-31T02:02:11.524Z,96489.00
2022-08-31T02:06:48.915Z,96493.00
2022-08-31T02:11:22.577Z,96488.00
2022-08-31T02:16:00.986Z,96483.00
2022-08-31T02:20:34.849Z,96492.00
2022-08-31T02:25:11.811Z,96478.00
2022-08-31T02:29:50.580Z,96475.00
2022-08-31T02:34:26.759Z,96476.00
2022-08-31T02:38:30.016Z,96490.00
2022-08-31T02:42:52.085Z,96487.00
2022-08-31T02:46:56.243Z,96490.00
2022-08-31T02:51:34.908Z,96486.00
2022-08-31T02:55:38.194Z,96483.00
2022-08-31T02:59:41.333Z,96477.00
2022-08-31T03:04:15.260Z,96472.00
2022-08-31T03:08:20.041Z,96479.00
2022-08-31T03:12:23.189Z,96489.00
2022-08-31T03:16:26.391Z,96475.00
2022-08-31T03:20:30.306Z,96472.00
2022-08-31T03:25:04.192Z,96474.00
2022-08-31T03:29:43.270Z,96479.00
2022-08-31T03:33:46.366Z,96474.00
2022-08-31T03:38:22.982Z,96473.00
2022-08-31T03:42:26.931Z,96477.00
2022-08-31T03:47:00.517Z,96477.00
2022-08-31T03:51:03.625Z,96479.00
2022-08-31T03:55:08.990Z,96479.00
2022-08-31T03:59:42.803Z,96489.00
2022-08-31T04:04:20.992Z,96492.00
2022-08-31T04:08:25.837Z,96500.00
2022-08-31T04:12:59.439Z,96492.00
2022-08-31T04:17:36.514Z,96495.00
2022-08-31T04:21:45.405Z,96494.00
2022-08-31T04:25:48.580Z,96500.00
2022-08-31T04:30:22.574Z,96503.00
2022-08-31T04:34:25.713Z,96510.00
2022-08-31T04:39:02.613Z,96513.00
2022-08-31T04:43:07.597Z,96510.00
2022-08-31T04:47:42.019Z,96511.00
2022-08-31T04:52:16.043Z,96515.00
2022-08-31T04:56:22.331Z,96517.00
2022-08-31T05:00:57.814Z,96517.00
2022-08-31T05:05:01.587Z,96524.00
2022-08-31T05:09:38.474Z,96523.00
2022-08-31T05:13:41.966Z,96521.00
2022-08-31T05:18:18.209Z,96516.00
2022-08-31T05:22:54.961Z,96518.00
2022-08-31T05:26:58.172Z,96520.00
2022-08-31T05:31:01.448Z,96524.00
2022-08-31T05:35:40.004Z,96522.00
2022-08-31T05:39:43.107Z,96524.00
2022-08-31T05:44:21.412Z,96525.00
2022-08-31T05:48:33.678Z,96525.00
2022-08-31T05:52:38.258Z,96516.00
2022-08-31T05:56:43.059Z,96521.00
2022-08-31T06:01:17.224Z,96514.00
2022-08-31T06:05:21.126Z,96515.00
2022-08-31T06:09:55.287Z,96516.00
2022-08-31T06:14:02.403Z,96527.00
2022-08-31T06:18:38.433Z,96517.00
2022-08-31T06:23:12.591Z,96514.00
2022-08-31T06:27:50.541Z,96524.00
2022-08-31T06:32:26.346Z,96527.00
2022-08-31T06:36:59.822Z,96530.00
2022-08-31T06:41:37.855Z,96530.00
2022-08-31T06:46:11.826Z,96543.00
2022-08-31T06:50:17.961Z,96533.00
2022-08-31T06:54:49.698Z,96549.00
2022-08-31T06:59:28.772Z,96546.00
2022-08-31T07:03:34.523Z,96546.00
2022-08-31T07:07:39.894Z,96552.00
2022-08-31T07:12:14.058Z,96550.00
2022-08-31T07:16:51.373Z,96551.00
2022-08-31T07:20:54.490Z,96549.00
2022-08-31T07:25:02.417Z,96557.00
2022-08-31T07:29:40.673Z,96557.00
2022-08-31T07:34:11.442Z,96556.00
2022-08-31T07:38:32.193Z,96557.00
2022-08-31T07:42:38.871Z,96563.00
2022-08-31T07:46:42.026Z,96566.00
2022-08-31T07:50:46.868Z,96562.00
2022-08-31T07:55:21.645Z,96573.00
2022-08-31T07:59:26.111Z,96578.00
2022-08-31T08:04:02.186Z,96570.00
2022-08-31T08:08:13.577Z,96571.00
2022-08-31T08:12:22.480Z,96579.00
2022-08-31T08:16:58.745Z,96571.00
2022-08-31T08:21:32.675Z,96570.00
2022-08-31T08:26:21.301Z,96565.00
2022-08-31T08:30:46.714Z,96576.00
2022-08-31T08:35:24.056Z,96575.00
2022-08-31T08:40:01.629Z,96581.00
2022-08-31T08:44:34.278Z,96582.00
2022-08-31T08:49:14.388Z,96575.00
2022-08-31T08:53:17.628Z,96584.00
2022-08-31T08:57:56.211Z,96583.00
2022-08-31T09:02:32.567Z,96586.00
2022-08-31T09:07:11.809Z,96592.00
2022-08-31T09:11:46.702Z,96590.00
2022-08-31T09:16:04.524Z,96590.00
2022-08-31T09:20:28.394Z,96584.00
2022-08-31T09:24:32.613Z,96584.00
2022-08-31T09:28:37.938Z,96578.00
2022-08-31T09:33:19.606Z,96589.00
2022-08-31T09:37:25.522Z,96587.00
2022-08-31T09:42:04.176Z,96590.00
2022-08-31T09:46:10.015Z,96588.00
2022-08-31T09:50:45.304Z,96584.00
2022-08-31T09:55:25.267Z,96589.00
2022-08-31T09:59:56.178Z,96598.00
2022-08-31T10:04:20.593Z,96603.00
2022-08-31T10:08:39.596Z,96602.00
2022-08-31T10:12:49.691Z,96607.00
2022-08-31T10:17:23.882Z,96604.00
2022-08-31T10:21:56.085Z,96606.00
2022-08-31T10:26:03.516Z,96608.00
2022-08-31T10:30:34.256Z,96602.00
2022-08-31T10:34:59.992Z,96610.00
2022-08-31T10:39:03.309Z,96601.00
2022-08-31T10:43:45.174Z,96604.00
2022-08-31T10:47:50.324Z,96596.00
2022-08-31T10:52:03.264Z,96601.00
2022-08-31T10:56:37.449Z,96604.00
2022-08-31T11:00:49.598Z,96600.00
2022-08-31T11:05:02.269Z,96607.00
2022-08-31T11:09:32.818Z,96610.00
2022-08-31T11:14:03.512Z,96613.00
2022-08-31T11:18:36.319Z,96614.00
2022-08-31T11:23:26.967Z,96617.00
2022-08-31T11:27:54.313Z,96623.00
2022-08-31T11:32:01.042Z,96616.00
2022-08-31T11:36:08.979Z,96617.00
2022-08-31T11:41:00.864Z,96622.00
2022-08-31T11:45:10.921Z,96619.00
2022-08-31T11:49:38.814Z,96619.00
2022-08-31T11:59:20.599Z,96632.00
2022-08-31T12:03:44.890Z,96635.00
2022-08-31T12:07:49.562Z,96638.00
2022-08-31T12:12:30.824Z,96639.00
2022-08-31T12:16:47.071Z,96646.00
2022-08-31T12:21:16.458Z,96645.00
2022-08-31T12:25:29.018Z,96646.00
2022-08-31T12:30:08.746Z,96651.00
2022-08-31T12:34:31.199Z,96651.00
2022-08-31T12:39:13.578Z,96653.00
2022-08-31T12:43:46.182Z,96650.00
2022-08-31T12:48:01.439Z,96652.00
2022-08-31T12:52:33.529Z,96650.00
2022-08-31T12:57:08.054Z,96653.00
2022-08-31T13:01:41.418Z,96659.00
2022-08-31T13:06:17.137Z,96652.00
2022-08-31T13:10:50.901Z,96656.00
2022-08-31T13:15:29.563Z,96659.00
2022-08-31T13:19:35.707Z,96651.00
2022-08-31T13:24:10.351Z,96650.00
2022-08-31T13:28:30.593Z,96651.00
2022-08-31T13:33:22.293Z,96654.00
2022-08-31T13:37:30.097Z,96653.00
2022-08-31T13:42:05.412Z,96653.00
2022-08-31T13:46:43.141Z,96650.00
2022-08-31T13:51:19.672Z,96654.00
2022-08-31T14:00:42.253Z,96645.00
2022-08-31T14:05:28.590Z,96649.00
2022-08-31T14:09:53.290Z,96644.00
2022-08-31T14:14:29.963Z,96647.00
2022-08-31T14:19:04.047Z,96654.00
2022-08-31T14:23:42.156Z,96651.00
2022-08-31T14:28:17.555Z,96657.00
2022-08-31T14:32:51.590Z,96660.00
2022-08-31T14:37:33.262Z,96654.00
2022-08-31T14:41:36.405Z,96668.00
2022-08-31T14:46:13.155Z,96666.00
2022-08-31T14:50:51.879Z,96663.00
2022-08-31T14:55:00.648Z,96673.00
2022-08-31T14:59:32.507Z,96671.00
2022-08-31T15:04:06.875Z,96668.00
2022-08-31T15:08:45.130Z,96676.00
2022-08-31T15:13:23.650Z,96683.00
2022-08-31T15:17:57.543Z,96683.00
2022-08-31T15:22:35.339Z,96670.00
2022-08-31T15:27:15.231Z,96688.00
2022-08-31T15:31:23.681Z,96676.00
2022-08-31T15:36:02.572Z,96668.00
2022-08-31T15:40:07.265Z,96668.00
2022-08-31T15:44:11.865Z,96670.00
2022-08-31T15:48:48.895Z,96665.00
2022-08-31T15:52:55.878Z,96666.00
2022-08-31T15:56:58.999Z,96665.00
2022-08-31T16:01:38.031Z,96663.00
2022-08-31T16:06:12.271Z,96664.00
2022-08-31T16:10:49.420Z,96656.00
2022-08-31T16:15:29.076Z,96654.00
2022-08-31T16:20:05.439Z,96658.00
2022-08-31T16:24:39.813Z,96644.00
2022-08-31T16:29:14.966Z,96641.00
2022-08-31T16:33:55.366Z,96651.00
2022-08-31T16:38:31.075Z,96648.00
2022-08-31T16:43:05.318Z,96647.00
2022-08-31T16:47:42.559Z,96642.00
2022-08-31T16:52:21.426Z,96649.00
2022-08-31T16:56:58.092Z,96654.00
2022-08-31T17:01:33.154Z,96655.00
2022-08-31T17:06:07.090Z,96665.00
2022-08-31T17:10:43.995Z,96658.00
2022-08-31T17:15:25.395Z,96655.00
2022-08-31T17:19:56.655Z,96656.00
2022-08-31T17:24:35.872Z,96659.00
2022-08-31T17:29:09.965Z,96662.00
2022-08-31T17:33:46.707Z,96660.00
2022-08-31T17:38:25.502Z,96671.00
2022-08-31T17:43:05.673Z,96670.00
2022-08-31T17:47:36.432Z,96678.00
2022-08-31T17:52:13.046Z,96682.00
2022-08-31T17:56:54.040Z,96683.00
2022-08-31T18:01:30.313Z,96692.00
2022-08-31T18:06:01.591Z,96696.00
2022-08-31T18:10:39.225Z,96697.00
2022-08-31T18:15:17.322Z,96705.00
2022-08-31T18:19:48.379Z,96713.00
2022-08-31T18:24:25.626Z,96704.00
2022-08-31T18:29:04.115Z,96708.00
2022-08-31T18:33:14.872Z,96704.00
2022-08-31T18:37:21.094Z,96705.00
2022-08-31T18:41:43.828Z,96710.00
2022-08-31T18:45:49.614Z,96713.00
2022-08-31T18:50:35.024Z,96714.00
2022-08-31T18:55:02.306Z,96713.00
2022-08-31T18:59:37.089Z,96718.00
2022-08-31T19:04:17.623Z,96717.00
2022-08-31T19:08:50.607Z,96731.00
2022-08-31T19:13:26.292Z,96718.00
2022-08-31T19:17:29.537Z,96719.00
2022-08-31T19:22:07.322Z,96722.00
2022-08-31T19:26:12.197Z,96725.00
2022-08-31T19:30:47.691Z,96724.00
2022-08-31T19:35:21.197Z,96724.00
2022-08-31T19:39:58.180Z,96726.00
2022-08-31T19:44:08.138Z,96722.00
2022-08-31T19:48:11.962Z,96717.00
2022-08-31T19:52:49.176Z,96718.00
2022-08-31T20:02:09.197Z,96719.00
2022-08-31T20:06:43.231Z,96726.00
2022-08-31T20:10:47.371Z,96720.00
2022-08-31T20:15:21.185Z,96717.00
2022-08-31T20:19:29.940Z,96716.00
2022-08-31T20:24:03.015Z,96703.00
2022-08-31T20:28:37.539Z,96712.00
2022-08-31T20:32:41.383Z,96713.00
2022-08-31T20:37:18.410Z,96714.00
2022-08-31T20:41:23.035Z,96726.00
2022-08-31T20:45:26.141Z,96715.00
2022-08-31T20:50:02.938Z,96716.00
2022-08-31T20:54:06.537Z,96710.00
2022-08-31T21:03:26.858Z,96713.00
2022-08-31T21:07:30.154Z,96715.00
2022-08-31T21:11:36.551Z,96709.00
2022-08-31T21:15:45.084Z,96716.00
2022-08-31T21:20:20.882Z,96708.00
2022-08-31T21:24:24.015Z,96707.00
2022-08-31T21:28:29.254Z,96706.00
2022-08-31T21:32:32.769Z,96705.00
2022-08-31T21:36:38.675Z,96703.00
2022-08-31T21:40:48.722Z,96699.00
2022-08-31T21:45:16.421Z,96694.00
2022-08-31T21:49:20.297Z,96694.00
2022-08-31T21:53:25.861Z,96693.00
2022-08-31T21:57:28.999Z,96697.00
2022-08-31T22:01:33.921Z,96694.00
2022-08-31T22:06:07.444Z,96701.00
2022-08-31T22:10:12.304Z,96703.00
2022-08-31T22:14:17.824Z,96702.00
2022-08-31T22:19:00.172Z,96708.00
2022-08-31T22:22:44.092Z,96696.00
2022-08-31T22:26:52.506Z,96688.00
2022-08-31T22:30:56.238Z,96690.00
2022-08-31T22:34:59.562Z,96697.00
2022-08-31T22:39:04.248Z,96700.00
2022-08-31T22:43:09.490Z,96696.00
2022-08-31T22:47:13.387Z,96704.00
2022-08-31T22:51:48.594Z,96698.00
2022-08-31T22:55:51.874Z,96698.00
2022-08-31T22:59:58.607Z,96698.00
2022-08-31T23:04:05.547Z,96696.00
2022-08-31T23:08:09.834Z,96694.00
2022-08-31T23:12:13.078Z,96687.00
2022-08-31T23:16:18.181Z,96690.00
2022-08-31T23:20:52.863Z,96675.00
2022-08-31T23:24:57.949Z,96678.00
2022-08-31T23:29:01.841Z,96668.00
2022-08-31T23:33:07.017Z,96667.00
2022-08-31T23:37:11.556Z,96667.00
2022-08-31T23:41:14.718Z,96671.00
2022-08-31T23:45:18.863Z,96666.00
2022-08-31T23:49:23.466Z,96665.00
2022-08-31T23:53:28.216Z,96661.00
2022-08-31T23:57:33.493Z,96654.00
